Time;durP1;ratioP1;P1;durP2;ratioP2;P2;SDS_P1;SDS_P2;PMS_P1;PMS_P2;Temp;Humidity;BMP_temperature;BMP_pressure;BME280_temperature;BME280_humidity;BME280_pressure;Samples;Min_cycle;Max_cycle;Signal;HPM_P1;HPM_P2
2023/03/19 00:01:56;;;;;;;27.55;21.73;;;;;;;;;;5091605;28;20120;-56
2023/03/19 00:04:23;;;;;;;26.13;20.30;;;;;;;;;;5078259;28;20048;-57
2023/03/19 00:06:49;;;;;;;25.38;19.38;;;;;;;;;;5067245;28;20045;-57
2023/03/19 00:09:15;;;;;;;23.75;19.60;;;;;;;;;;5067948;28;20033;-57
2023/03/19 00:11:41;;;;;;;23.95;18.60;;;;;;;;;;5076962;28;20530;-57
2023/03/19 00:14:07;;;;;;;24.05;19.35;;;;;;;;;;5069894;28;20044;-57
2023/03/19 00:16:33;;;;;;;24.95;19.10;;;;;;;;;;5072115;28;20043;-56
2023/03/19 00:18:59;;;;;;;24.60;19.20;;;;;;;;;;5083259;28;20131;-57
2023/03/19 00:21:25;;;;;;;26.70;19.75;;;;;;;;;;5084552;28;20542;-57
2023/03/19 00:23:51;;;;;;;26.45;19.05;;;;;;;;;;5072739;28;20058;-57
2023/03/19 00:26:17;;;;;;;22.33;17.95;;;;;;;;;;5080229;28;20130;-55
2023/03/19 00:28:43;;;;;;;24.73;19.85;;;;;;;;;;5068585;28;20044;-56
2023/03/19 00:31:11;;;;;;;27.95;20.35;;;;;;;;;;5069399;28;20384;-56
2023/03/19 00:33:37;;;;;;;23.73;19.27;;;;;;;;;;5069433;28;20040;-55
2023/03/19 00:36:04;;;;;;;24.98;19.23;;;;;;;;;;5077510;28;20163;-57
2023/03/19 00:38:30;;;;;;;24.02;18.63;;;;;;;;;;5068143;28;20040;-57
2023/03/19 00:40:57;;;;;;;24.20;17.95;;;;;;;;;;5070057;28;20087;-57
2023/03/19 00:43:23;;;;;;;23.70;18.85;;;;;;;;;;5068360;28;20043;-56
2023/03/19 00:45:49;;;;;;;25.48;19.42;;;;;;;;;;5069508;28;20530;-57
2023/03/19 00:48:15;;;;;;;22.70;18.30;;;;;;;;;;5081042;28;20394;-56
2023/03/19 00:50:41;;;;;;;25.13;18.20;;;;;;;;;;5088543;28;20054;-57
2023/03/19 00:53:07;;;;;;;22.95;17.65;;;;;;;;;;5089164;28;20032;-56
2023/03/19 00:55:33;;;;;;;27.02;18.65;;;;;;;;;;5067947;28;20037;-57
2023/03/19 00:57:59;;;;;;;22.38;17.45;;;;;;;;;;5069023;28;20037;-57
2023/03/19 01:00:26;;;;;;;22.13;16.92;;;;;;;;;;5069060;28;20045;-57
2023/03/19 01:02:52;;;;;;;20.70;16.38;;;;;;;;;;5068992;28;20048;-57
2023/03/19 01:05:18;;;;;;;23.90;16.85;;;;;;;;;;5073523;28;20055;-57
2023/03/19 01:07:44;;;;;;;22.25;16.10;;;;;;;;;;5072613;28;20041;-57
2023/03/19 01:10:10;;;;;;;22.25;16.45;;;;;;;;;;5073139;28;20430;-56
2023/03/19 01:12:36;;;;;;;21.13;15.50;;;;;;;;;;5073308;28;20040;-57
2023/03/19 01:15:03;;;;;;;21.52;16.77;;;;;;;;;;5072234;28;20043;-57
2023/03/19 01:17:29;;;;;;;19.08;16.02;;;;;;;;;;5092799;28;20044;-57
2023/03/19 01:19:55;;;;;;;20.65;17.02;;;;;;;;;;5084241;28;20040;-57
2023/03/19 01:22:21;;;;;;;24.63;15.82;;;;;;;;;;5072069;28;20453;-56
2023/03/19 01:24:47;;;;;;;28.65;16.08;;;;;;;;;;5084440;28;20109;-57
2023/03/19 01:27:13;;;;;;;18.48;14.43;;;;;;;;;;5073281;28;20045;-56
2023/03/19 01:29:39;;;;;;;20.02;12.98;;;;;;;;;;5072317;28;20049;-57
2023/03/19 01:32:06;;;;;;;15.68;11.85;;;;;;;;;;5073101;28;20044;-56
2023/03/19 01:34:32;;;;;;;18.90;12.48;;;;;;;;;;5072687;28;20418;-58
2023/03/19 01:36:58;;;;;;;14.38;11.35;;;;;;;;;;5071843;28;20044;-58
2023/03/19 01:39:25;;;;;;;15.80;11.93;;;;;;;;;;5072421;28;20044;-57
2023/03/19 01:41:51;;;;;;;16.77;11.32;;;;;;;;;;5072867;28;20103;-57
2023/03/19 01:44:26;;;;;;;13.77;10.88;;;;;;;;;;5071801;28;20040;-56
2023/03/19 01:46:52;;;;;;;16.45;10.88;;;;;;;;;;5072411;28;20048;-57
2023/03/19 01:49:20;;;;;;;12.05;9.70;;;;;;;;;;5092522;28;20123;-57
2023/03/19 01:51:47;;;;;;;14.40;9.77;;;;;;;;;;5085115;28;20093;-57
2023/03/19 01:54:14;;;;;;;12.30;7.90;;;;;;;;;;5072353;28;20036;-56
2023/03/19 01:56:42;;;;;;;11.32;9.07;;;;;;;;;;5071928;28;20079;-57
2023/03/19 01:59:14;;;;;;;12.05;7.97;;;;;;;;;;5071612;28;20067;-58
2023/03/19 02:01:45;;;;;;;10.77;7.40;;;;;;;;;;5072278;28;20032;-57
2023/03/19 02:04:11;;;;;;;9.38;7.07;;;;;;;;;;5071663;28;20033;-56
2023/03/19 02:06:37;;;;;;;9.23;7.38;;;;;;;;;;5071545;28;20085;-56
2023/03/19 02:09:03;;;;;;;9.82;7.20;;;;;;;;;;5088466;28;20055;-57
2023/03/19 02:11:30;;;;;;;9.52;6.70;;;;;;;;;;5088494;28;20037;-57
2023/03/19 02:13:56;;;;;;;8.02;6.68;;;;;;;;;;5071451;28;20062;-57
2023/03/19 02:16:22;;;;;;;10.38;6.28;;;;;;;;;;5070918;28;20111;-57
2023/03/19 02:18:49;;;;;;;9.68;6.93;;;;;;;;;;5071966;28;20139;-56
2023/03/19 02:21:16;;;;;;;10.38;6.78;;;;;;;;;;5071410;28;20090;-57
2023/03/19 02:23:45;;;;;;;9.20;6.85;;;;;;;;;;5073722;28;20055;-57
2023/03/19 02:26:12;;;;;;;9.48;6.50;;;;;;;;;;5080744;28;20478;-58
2023/03/19 02:28:41;;;;;;;9.20;6.63;;;;;;;;;;5062326;28;20384;-55
2023/03/19 02:31:07;;;;;;;10.65;6.40;;;;;;;;;;5071768;28;20044;-57
2023/03/19 02:33:33;;;;;;;8.95;6.13;;;;;;;;;;5071494;28;20083;-56
2023/03/19 02:36:00;;;;;;;7.20;5.70;;;;;;;;;;5070680;28;20033;-57
2023/03/19 02:38:27;;;;;;;8.85;6.18;;;;;;;;;;5071722;28;20416;-57
2023/03/19 02:40:56;;;;;;;7.63;5.50;;;;;;;;;;5071101;28;20094;-56
2023/03/19 02:43:22;;;;;;;7.88;6.10;;;;;;;;;;5070774;28;20079;-57
2023/03/19 02:45:49;;;;;;;9.02;5.88;;;;;;;;;;5071234;28;20500;-57
2023/03/19 02:48:15;;;;;;;7.57;5.70;;;;;;;;;;5074682;28;20452;-57
2023/03/19 02:50:41;;;;;;;7.72;5.47;;;;;;;;;;5070614;28;20037;-56
2023/03/19 02:53:07;;;;;;;8.27;5.57;;;;;;;;;;5071240;28;20045;-57
2023/03/19 02:55:33;;;;;;;7.35;5.82;;;;;;;;;;5070797;28;20032;-56
2023/03/19 02:57:59;;;;;;;7.65;5.40;;;;;;;;;;5070586;28;20047;-57
2023/03/19 03:00:25;;;;;;;8.18;5.65;;;;;;;;;;5070765;28;20044;-57
2023/03/19 03:02:51;;;;;;;8.60;5.90;;;;;;;;;;5071342;28;20040;-56
2023/03/19 03:05:17;;;;;;;7.30;5.97;;;;;;;;;;5069835;28;20051;-58
2023/03/19 03:07:43;;;;;;;8.05;5.97;;;;;;;;;;5069297;28;20048;-57
2023/03/19 03:10:10;;;;;;;7.05;5.50;;;;;;;;;;5070905;28;20049;-57
2023/03/19 03:12:37;;;;;;;6.80;5.30;;;;;;;;;;5070229;28;20448;-57
2023/03/19 03:15:03;;;;;;;7.15;5.72;;;;;;;;;;5070623;28;20123;-58
2023/03/19 03:17:30;;;;;;;7.35;5.88;;;;;;;;;;5087621;28;20043;-56
2023/03/19 03:19:56;;;;;;;6.68;5.10;;;;;;;;;;5086742;28;20066;-57
2023/03/19 03:22:22;;;;;;;7.53;5.30;;;;;;;;;;5070393;28;20487;-56
2023/03/19 03:24:48;;;;;;;7.93;5.40;;;;;;;;;;5071872;28;20067;-56
2023/03/19 03:27:14;;;;;;;8.65;4.72;;;;;;;;;;5089557;28;20509;-56
2023/03/19 03:29:40;;;;;;;5.38;4.82;;;;;;;;;;5090558;28;20051;-57
2023/03/19 03:32:07;;;;;;;7.13;4.65;;;;;;;;;;5085497;28;20059;-56
2023/03/19 03:34:33;;;;;;;7.10;4.82;;;;;;;;;;5069888;28;20458;-56
2023/03/19 03:36:59;;;;;;;8.48;4.93;;;;;;;;;;5069892;28;20036;-57
2023/03/19 03:39:26;;;;;;;5.72;4.25;;;;;;;;;;5070188;28;20080;-57
2023/03/19 03:41:52;;;;;;;6.00;4.47;;;;;;;;;;5069447;28;20048;-56
2023/03/19 03:44:18;;;;;;;4.80;4.32;;;;;;;;;;5070505;28;20550;-57
2023/03/19 03:46:45;;;;;;;5.10;4.00;;;;;;;;;;5070203;28;20123;-56
2023/03/19 03:49:12;;;;;;;5.03;4.30;;;;;;;;;;5075237;28;20406;-57
2023/03/19 03:51:38;;;;;;;6.40;3.92;;;;;;;;;;5070372;28;20072;-57
2023/03/19 03:54:04;;;;;;;5.57;4.72;;;;;;;;;;5070093;28;20071;-57
2023/03/19 03:56:30;;;;;;;6.55;5.03;;;;;;;;;;5069160;28;20394;-56
2023/03/19 03:58:56;;;;;;;5.57;4.95;;;;;;;;;;5069826;28;20032;-56
2023/03/19 04:01:22;;;;;;;6.32;4.90;;;;;;;;;;5084566;28;20040;-56
2023/03/19 04:03:48;;;;;;;6.68;4.93;;;;;;;;;;5088164;28;20093;-57
2023/03/19 04:06:15;;;;;;;7.85;5.53;;;;;;;;;;5070127;28;20037;-57
2023/03/19 04:08:41;;;;;;;8.48;5.10;;;;;;;;;;5069753;28;20051;-56
2023/03/19 04:11:07;;;;;;;9.25;5.15;;;;;;;;;;5069379;28;20048;-57
2023/03/19 04:13:35;;;;;;;7.80;5.68;;;;;;;;;;5069939;28;20395;-57
2023/03/19 04:16:03;;;;;;;7.25;5.65;;;;;;;;;;5072265;28;20402;-57
2023/03/19 04:18:29;;;;;;;6.90;5.40;;;;;;;;;;5089603;28;20054;-56
2023/03/19 04:20:56;;;;;;;7.78;5.28;;;;;;;;;;5079658;28;20044;-57
2023/03/19 04:23:22;;;;;;;8.70;5.40;;;;;;;;;;5069359;28;20064;-57
2023/03/19 04:25:48;;;;;;;8.13;6.03;;;;;;;;;;5081111;28;20043;-57
2023/03/19 04:28:15;;;;;;;8.55;6.15;;;;;;;;;;5067868;28;20070;-56
2023/03/19 04:30:42;;;;;;;8.85;5.93;;;;;;;;;;5069528;28;20060;-56
2023/03/19 04:33:09;;;;;;;7.60;5.85;;;;;;;;;;5068997;28;20045;-57
2023/03/19 04:35:35;;;;;;;11.85;6.45;;;;;;;;;;5069557;28;20150;-56
2023/03/19 04:38:01;;;;;;;8.98;6.82;;;;;;;;;;5068587;28;20033;-56
2023/03/19 04:40:28;;;;;;;7.15;5.90;;;;;;;;;;5068838;28;20044;-57
2023/03/19 04:42:54;;;;;;;7.68;5.97;;;;;;;;;;5069595;28;20486;-56
2023/03/19 04:45:20;;;;;;;9.30;6.75;;;;;;;;;;5069540;28;20125;-57
2023/03/19 04:47:46;;;;;;;10.75;6.88;;;;;;;;;;5076342;28;20047;-57
2023/03/19 04:50:12;;;;;;;8.07;6.30;;;;;;;;;;5069506;28;20048;-57
2023/03/19 04:52:39;;;;;;;7.68;6.47;;;;;;;;;;5069355;28;20413;-57
2023/03/19 04:55:06;;;;;;;8.70;6.30;;;;;;;;;;5068935;28;20499;-57
2023/03/19 04:57:33;;;;;;;9.65;6.25;;;;;;;;;;5069132;28;20076;-57
2023/03/19 04:59:59;;;;;;;9.48;6.65;;;;;;;;;;5069139;28;20043;-58
2023/03/19 05:02:25;;;;;;;9.18;6.30;;;;;;;;;;5069078;28;20087;-57
2023/03/19 05:04:52;;;;;;;8.93;6.00;;;;;;;;;;5069019;28;20052;-57
2023/03/19 05:07:18;;;;;;;8.20;5.70;;;;;;;;;;5069108;28;20043;-57
2023/03/19 05:09:45;;;;;;;8.30;5.90;;;;;;;;;;5068591;28;20045;-57
2023/03/19 05:12:11;;;;;;;6.80;5.53;;;;;;;;;;5069190;28;20083;-57
2023/03/19 05:14:37;;;;;;;7.47;5.72;;;;;;;;;;5069471;28;20119;-56
2023/03/19 05:17:04;;;;;;;9.60;5.90;;;;;;;;;;5077039;28;20523;-57
2023/03/19 05:19:30;;;;;;;10.40;6.05;;;;;;;;;;5089306;28;20131;-57
2023/03/19 05:21:56;;;;;;;9.63;5.65;;;;;;;;;;5073067;28;20239;-57
2023/03/19 05:24:23;;;;;;;10.15;6.03;;;;;;;;;;5073960;28;20446;-56
2023/03/19 05:26:48;;;;;;;8.27;5.65;;;;;;;;;;5084860;28;20478;-56
2023/03/19 05:29:14;;;;;;;8.02;5.53;;;;;;;;;;5079116;28;20037;-57
2023/03/19 05:31:41;;;;;;;8.90;5.95;;;;;;;;;;5068942;28;20042;-57
2023/03/19 05:34:07;;;;;;;8.23;6.03;;;;;;;;;;5068467;28;20410;-56
2023/03/19 05:36:33;;;;;;;6.82;6.13;;;;;;;;;;5069126;28;20540;-57
2023/03/19 05:39:00;;;;;;;8.05;5.93;;;;;;;;;;5068742;28;20055;-56
2023/03/19 05:41:26;;;;;;;9.02;6.10;;;;;;;;;;5068109;28;20044;-57
2023/03/19 05:43:52;;;;;;;8.10;6.07;;;;;;;;;;5069066;28;20039;-57
2023/03/19 05:46:18;;;;;;;10.32;6.43;;;;;;;;;;5068879;28;20556;-56
2023/03/19 05:48:44;;;;;;;7.60;5.82;;;;;;;;;;5078316;28;20048;-57
2023/03/19 05:51:11;;;;;;;9.18;6.40;;;;;;;;;;5072484;28;20052;-56
2023/03/19 05:53:37;;;;;;;7.57;5.95;;;;;;;;;;5072367;28;20052;-57
2023/03/19 05:56:03;;;;;;;10.82;6.32;;;;;;;;;;5072181;28;20399;-57
2023/03/19 05:58:29;;;;;;;12.05;6.20;;;;;;;;;;5091609;28;20455;-56
2023/03/19 06:00:56;;;;;;;7.65;6.05;;;;;;;;;;5092196;28;20071;-56
2023/03/19 06:03:23;;;;;;;10.63;6.70;;;;;;;;;;5092100;28;20395;-57
2023/03/19 06:05:50;;;;;;;8.80;6.05;;;;;;;;;;5078460;28;20040;-57
2023/03/19 06:08:16;;;;;;;9.15;7.32;;;;;;;;;;5071826;28;20047;-57
2023/03/19 06:10:42;;;;;;;10.75;7.03;;;;;;;;;;5071384;28;20041;-57
2023/03/19 06:13:08;;;;;;;8.35;6.10;;;;;;;;;;5071592;28;20059;-57
2023/03/19 06:15:34;;;;;;;11.50;7.18;;;;;;;;;;5072111;28;20043;-57
2023/03/19 06:18:00;;;;;;;9.65;6.75;;;;;;;;;;5071212;28;20040;-57
2023/03/19 06:20:26;;;;;;;10.73;7.07;;;;;;;;;;5071547;28;20047;-57
2023/03/19 06:22:52;;;;;;;10.57;7.03;;;;;;;;;;5071424;28;20068;-57
2023/03/19 06:25:18;;;;;;;9.50;7.18;;;;;;;;;;5081561;28;20051;-57
2023/03/19 06:27:44;;;;;;;10.25;7.30;;;;;;;;;;5092061;28;20352;-57
2023/03/19 06:30:11;;;;;;;9.57;7.50;;;;;;;;;;5075658;28;20094;-57
2023/03/19 06:32:37;;;;;;;10.18;7.35;;;;;;;;;;5071089;28;20049;-56
2023/03/19 06:35:04;;;;;;;11.10;7.68;;;;;;;;;;5071939;28;20115;-57
2023/03/19 06:37:30;;;;;;;10.48;6.78;;;;;;;;;;5071276;28;20040;-55
2023/03/19 06:39:56;;;;;;;9.85;6.72;;;;;;;;;;5070660;28;20114;-57
2023/03/19 06:42:22;;;;;;;8.88;7.15;;;;;;;;;;5071364;28;20040;-57
2023/03/19 06:44:48;;;;;;;11.40;8.07;;;;;;;;;;5071469;28;20542;-57
2023/03/19 06:47:14;;;;;;;9.70;7.20;;;;;;;;;;5074039;28;20567;-57
2023/03/19 06:49:40;;;;;;;12.55;7.57;;;;;;;;;;5081024;28;20048;-57
2023/03/19 06:52:07;;;;;;;12.25;8.23;;;;;;;;;;5071701;28;20032;-57
2023/03/19 06:54:33;;;;;;;12.30;8.38;;;;;;;;;;5070818;28;20440;-55
2023/03/19 06:56:59;;;;;;;12.02;8.38;;;;;;;;;;5070793;28;20040;-56
2023/03/19 06:59:25;;;;;;;14.38;9.50;;;;;;;;;;5070997;28;20040;-55
2023/03/19 07:01:51;;;;;;;16.33;9.52;;;;;;;;;;5070151;28;20538;-57
2023/03/19 07:04:17;;;;;;;15.90;10.07;;;;;;;;;;5071278;28;20059;-57
2023/03/19 07:06:43;;;;;;;11.15;8.98;;;;;;;;;;5071017;28;20044;-57
2023/03/19 07:09:10;;;;;;;13.07;9.52;;;;;;;;;;5069869;28;20062;-57
2023/03/19 07:11:36;;;;;;;13.75;9.80;;;;;;;;;;5071203;28;20043;-57
2023/03/19 07:14:02;;;;;;;15.15;10.15;;;;;;;;;;5070762;28;20044;-57
2023/03/19 07:16:29;;;;;;;14.35;9.88;;;;;;;;;;5070596;28;20072;-56
2023/03/19 07:18:55;;;;;;;17.38;11.45;;;;;;;;;;5090593;28;20036;-57
2023/03/19 07:21:21;;;;;;;13.73;10.02;;;;;;;;;;5083194;28;20098;-56
2023/03/19 07:23:49;;;;;;;15.32;11.30;;;;;;;;;;5072618;28;20459;-56
2023/03/19 07:26:15;;;;;;;13.93;10.68;;;;;;;;;;5086617;28;20071;-56
2023/03/19 07:28:41;;;;;;;15.18;11.35;;;;;;;;;;5089835;28;20040;-56
2023/03/19 07:31:07;;;;;;;17.95;11.05;;;;;;;;;;5069781;28;20052;-56
2023/03/19 07:33:33;;;;;;;15.23;10.68;;;;;;;;;;5070655;28;20041;-56
2023/03/19 07:35:59;;;;;;;14.90;10.23;;;;;;;;;;5070477;28;20072;-56
2023/03/19 07:38:25;;;;;;;15.50;10.93;;;;;;;;;;5069465;28;20505;-56
2023/03/19 07:40:51;;;;;;;14.23;9.68;;;;;;;;;;5070018;28;20036;-57
2023/03/19 07:43:17;;;;;;;16.48;10.45;;;;;;;;;;5070023;28;20052;-57
2023/03/19 07:45:43;;;;;;;13.90;10.90;;;;;;;;;;5069684;28;20048;-57
2023/03/19 07:48:09;;;;;;;16.92;11.00;;;;;;;;;;5081578;28;20146;-58
2023/03/19 07:50:35;;;;;;;16.75;12.05;;;;;;;;;;5073902;28;20406;-57
2023/03/19 07:53:02;;;;;;;17.40;11.68;;;;;;;;;;5069170;28;20040;-57
2023/03/19 07:55:28;;;;;;;17.52;11.80;;;;;;;;;;5070187;28;20041;-57
2023/03/19 07:57:54;;;;;;;15.02;11.75;;;;;;;;;;5069870;28;20036;-56
2023/03/19 08:00:21;;;;;;;16.40;12.27;;;;;;;;;;5069204;28;20040;-56
2023/03/19 08:02:47;;;;;;;18.15;13.18;;;;;;;;;;5070162;28;20052;-57
2023/03/19 08:05:13;;;;;;;18.38;12.98;;;;;;;;;;5069928;28;20090;-56
2023/03/19 08:07:40;;;;;;;19.83;13.35;;;;;;;;;;5069467;28;20123;-56
2023/03/19 08:10:06;;;;;;;19.40;13.43;;;;;;;;;;5070136;28;20049;-56
2023/03/19 08:12:38;;;;;;;14.75;12.02;;;;;;;;;;5069460;28;20051;-56
2023/03/19 08:15:04;;;;;;;16.85;12.07;;;;;;;;;;5068874;28;20036;-56
2023/03/19 08:17:33;;;;;;;16.98;11.55;;;;;;;;;;5067709;28;20703;-55
2023/03/19 08:19:59;;;;;;;16.02;11.05;;;;;;;;;;5069467;28;20048;-57
2023/03/19 08:22:25;;;;;;;20.00;12.15;;;;;;;;;;5068722;28;20092;-57
2023/03/19 08:24:51;;;;;;;15.02;11.52;;;;;;;;;;5080549;28;20095;-56
2023/03/19 08:27:17;;;;;;;15.73;12.05;;;;;;;;;;5089850;28;20101;-56
2023/03/19 08:29:43;;;;;;;18.20;12.20;;;;;;;;;;5081260;28;20123;-57
2023/03/19 08:32:09;;;;;;;14.18;11.57;;;;;;;;;;5069738;28;20425;-57
2023/03/19 08:34:35;;;;;;;17.25;12.68;;;;;;;;;;5069510;28;20047;-57
2023/03/19 08:37:01;;;;;;;16.60;11.65;;;;;;;;;;5068679;28;20072;-57
2023/03/19 08:39:27;;;;;;;12.70;9.93;;;;;;;;;;5069178;28;20054;-55
2023/03/19 08:41:53;;;;;;;14.13;10.40;;;;;;;;;;5069174;28;20097;-56
2023/03/19 08:44:19;;;;;;;14.13;10.73;;;;;;;;;;5069036;28;20037;-57
2023/03/19 08:46:45;;;;;;;12.30;10.27;;;;;;;;;;5069407;28;20135;-56
2023/03/19 08:49:11;;;;;;;14.85;10.35;;;;;;;;;;5088444;28;20494;-56
2023/03/19 08:51:37;;;;;;;14.60;11.02;;;;;;;;;;5089151;28;20040;-57
2023/03/19 08:54:04;;;;;;;11.90;8.73;;;;;;;;;;5079858;28;20102;-57
2023/03/19 08:56:29;;;;;;;12.85;9.73;;;;;;;;;;5069690;28;20051;-57
2023/03/19 08:58:56;;;;;;;13.60;9.18;;;;;;;;;;5069074;28;20033;-56
2023/03/19 09:01:23;;;;;;;16.20;9.82;;;;;;;;;;5068302;28;20068;-56
2023/03/19 09:03:49;;;;;;;13.07;9.85;;;;;;;;;;5069360;28;20071;-57
2023/03/19 09:06:15;;;;;;;12.20;9.13;;;;;;;;;;5069274;28;20076;-57
2023/03/19 09:08:41;;;;;;;11.27;8.70;;;;;;;;;;5068637;28;20117;-56
2023/03/19 09:11:09;;;;;;;12.70;9.13;;;;;;;;;;5069186;28;20060;-57
2023/03/19 09:13:35;;;;;;;13.27;9.32;;;;;;;;;;5069045;28;20044;-56
2023/03/19 09:16:01;;;;;;;12.15;9.55;;;;;;;;;;5068378;28;20486;-56
2023/03/19 09:18:27;;;;;;;10.38;8.88;;;;;;;;;;5067212;28;20083;-55
2023/03/19 09:20:54;;;;;;;13.57;8.63;;;;;;;;;;5068853;28;20402;-56
2023/03/19 09:23:20;;;;;;;10.63;9.27;;;;;;;;;;5067944;28;20276;-56
2023/03/19 09:25:46;;;;;;;14.48;9.70;;;;;;;;;;5090527;28;20040;-57
2023/03/19 09:28:12;;;;;;;12.68;9.38;;;;;;;;;;5093476;28;20032;-57
2023/03/19 09:30:38;;;;;;;12.38;9.20;;;;;;;;;;5078751;28;20553;-57
2023/03/19 09:33:04;;;;;;;12.27;9.75;;;;;;;;;;5072806;28;20032;-56
2023/03/19 09:35:31;;;;;;;13.50;9.57;;;;;;;;;;5072773;28;20045;-56
2023/03/19 09:37:58;;;;;;;11.65;9.40;;;;;;;;;;5072139;28;20180;-56
2023/03/19 09:40:26;;;;;;;12.18;9.45;;;;;;;;;;5072538;28;20040;-57
2023/03/19 09:43:11;;;;;;;12.55;9.82;;;;;;;;;;5072308;28;20501;-57
2023/03/19 09:45:37;;;;;;;13.20;9.70;;;;;;;;;;5074851;28;20044;-57
2023/03/19 09:48:11;;;;;;;13.05;10.00;;;;;;;;;;5082805;28;20043;-57
2023/03/19 09:50:37;;;;;;;14.38;10.38;;;;;;;;;;5072333;28;20398;-57
2023/03/19 09:53:12;;;;;;;15.15;10.02;;;;;;;;;;5072000;28;20119;-56
2023/03/19 09:55:38;;;;;;;12.63;9.65;;;;;;;;;;5072451;28;20044;-57
2023/03/19 09:58:10;;;;;;;12.02;9.45;;;;;;;;;;5072317;28;20120;-57
2023/03/19 10:00:37;;;;;;;11.68;8.95;;;;;;;;;;5071780;28;20436;-57
2023/03/19 10:03:21;;;;;;;12.82;9.18;;;;;;;;;;5071894;28;20094;-56
2023/03/19 10:05:51;;;;;;;14.93;10.05;;;;;;;;;;5071693;28;20052;-57
2023/03/19 10:08:37;;;;;;;15.68;10.13;;;;;;;;;;5072461;28;20044;-57
2023/03/19 10:11:14;;;;;;;15.50;11.60;;;;;;;;;;5071982;28;20040;-57
2023/03/19 10:13:42;;;;;;;15.18;11.65;;;;;;;;;;5070928;28;20072;-56
2023/03/19 10:16:20;;;;;;;16.10;11.40;;;;;;;;;;5072210;28;20063;-57
2023/03/19 10:18:48;;;;;;;18.63;11.32;;;;;;;;;;5071799;28;20048;-57
2023/03/19 10:21:17;;;;;;;16.30;12.57;;;;;;;;;;5071318;28;20083;-56
2023/03/19 10:24:02;;;;;;;15.32;11.55;;;;;;;;;;5073616;28;20052;-57
2023/03/19 10:26:30;;;;;;;15.68;11.90;;;;;;;;;;5078454;28;20127;-56
2023/03/19 10:29:02;;;;;;;15.15;11.95;;;;;;;;;;5071498;28;20514;-56
2023/03/19 10:31:48;;;;;;;14.52;12.15;;;;;;;;;;5071884;28;20040;-56
2023/03/19 10:34:23;;;;;;;19.27;12.45;;;;;;;;;;5071831;28;20028;-56
2023/03/19 10:36:49;;;;;;;18.15;12.68;;;;;;;;;;5070394;28;20056;-56
2023/03/19 10:39:18;;;;;;;16.80;12.32;;;;;;;;;;5071605;28;20627;-56
2023/03/19 10:42:02;;;;;;;15.38;11.90;;;;;;;;;;5071580;28;20063;-56
2023/03/19 10:44:34;;;;;;;18.27;12.65;;;;;;;;;;5070951;28;20048;-56
2023/03/19 10:47:10;;;;;;;17.38;13.50;;;;;;;;;;5085889;28;20035;-57
2023/03/19 10:49:36;;;;;;;20.40;13.15;;;;;;;;;;5089080;28;20058;-56
2023/03/19 10:52:03;;;;;;;18.55;13.65;;;;;;;;;;5070753;28;20513;-56
2023/03/19 10:54:29;;;;;;;20.05;13.98;;;;;;;;;;5071083;28;20032;-56
2023/03/19 10:56:56;;;;;;;18.05;13.20;;;;;;;;;;5071411;28;20395;-57
2023/03/19 10:59:31;;;;;;;16.63;13.02;;;;;;;;;;5087461;28;20043;-56
2023/03/19 11:01:58;;;;;;;20.30;14.18;;;;;;;;;;5091216;28;20069;-56
2023/03/19 11:04:26;;;;;;;19.02;14.48;;;;;;;;;;5091171;28;20395;-57
2023/03/19 11:06:53;;;;;;;18.00;13.02;;;;;;;;;;5077689;28;20368;-57
2023/03/19 11:09:39;;;;;;;19.05;13.40;;;;;;;;;;5071205;28;20651;-57
2023/03/19 11:12:16;;;;;;;20.63;14.38;;;;;;;;;;5071149;28;20044;-57
2023/03/19 11:14:44;;;;;;;19.50;13.30;;;;;;;;;;5070445;28;20032;-57
2023/03/19 11:17:22;;;;;;;18.23;12.15;;;;;;;;;;5070956;28;20479;-57
2023/03/19 11:19:53;;;;;;;15.68;12.27;;;;;;;;;;5069822;28;20040;-57
2023/03/19 11:22:21;;;;;;;17.85;13.15;;;;;;;;;;5070521;28;20063;-56
2023/03/19 11:24:49;;;;;;;17.42;12.93;;;;;;;;;;5081867;28;20040;-56
2023/03/19 11:27:18;;;;;;;16.13;12.75;;;;;;;;;;5070116;28;20129;-57
2023/03/19 11:29:45;;;;;;;16.92;12.77;;;;;;;;;;5070508;28;20042;-56
2023/03/19 11:32:11;;;;;;;19.65;12.80;;;;;;;;;;5070757;28;20097;-56
2023/03/19 11:34:40;;;;;;;17.83;12.32;;;;;;;;;;5069609;28;20037;-55
2023/03/19 11:37:06;;;;;;;17.52;12.77;;;;;;;;;;5070443;28;20411;-57
2023/03/19 11:39:50;;;;;;;19.02;13.32;;;;;;;;;;5070070;28;20155;-57
2023/03/19 11:42:35;;;;;;;16.20;12.15;;;;;;;;;;5069564;28;20043;-56
2023/03/19 11:45:01;;;;;;;18.70;13.02;;;;;;;;;;5070209;28;20044;-54
2023/03/19 11:47:36;;;;;;;17.70;13.38;;;;;;;;;;5086168;28;20105;-57
2023/03/19 11:50:21;;;;;;;15.77;12.07;;;;;;;;;;5085516;28;20076;-57
2023/03/19 11:52:47;;;;;;;16.30;12.02;;;;;;;;;;5069059;28;20033;-56
2023/03/19 11:55:16;;;;;;;16.42;12.60;;;;;;;;;;5069900;28;20052;-56
2023/03/19 11:57:55;;;;;;;17.58;12.48;;;;;;;;;;5069242;28;20079;-56
2023/03/19 12:00:30;;;;;;;17.80;13.15;;;;;;;;;;5069865;28;20049;-56
2023/03/19 12:03:22;;;;;;;14.15;12.25;;;;;;;;;;5069875;28;20040;-57
2023/03/19 12:06:05;;;;;;;17.23;13.20;;;;;;;;;;5069153;28;20490;-57
2023/03/19 12:08:42;;;;;;;18.02;13.05;;;;;;;;;;5070062;28;20060;-57
2023/03/19 12:11:20;;;;;;;16.40;12.45;;;;;;;;;;5070036;28;20402;-57
2023/03/19 12:13:46;;;;;;;17.60;13.00;;;;;;;;;;5069950;28;20032;-56
2023/03/19 12:16:31;;;;;;;15.25;12.13;;;;;;;;;;5070000;28;20067;-56
2023/03/19 12:19:13;;;;;;;16.58;12.27;;;;;;;;;;5069004;28;20652;-56
2023/03/19 12:21:57;;;;;;;15.27;11.20;;;;;;;;;;5069492;28;20036;-56
2023/03/19 12:24:23;;;;;;;14.40;10.45;;;;;;;;;;5077440;28;20043;-56
2023/03/19 12:26:49;;;;;;;16.10;11.05;;;;;;;;;;5080315;28;20036;-56
2023/03/19 12:29:21;;;;;;;16.27;10.70;;;;;;;;;;5069551;28;20043;-57
2023/03/19 12:31:56;;;;;;;13.23;10.35;;;;;;;;;;5069550;28;20048;-57
2023/03/19 12:34:28;;;;;;;16.50;11.73;;;;;;;;;;5072076;28;20425;-57
2023/03/19 12:37:05;;;;;;;14.20;11.20;;;;;;;;;;5089812;28;20036;-56
2023/03/19 12:39:34;;;;;;;14.93;10.98;;;;;;;;;;5074948;28;20079;-57
2023/03/19 12:42:01;;;;;;;14.05;11.50;;;;;;;;;;5068448;28;20051;-56
2023/03/19 12:44:34;;;;;;;15.75;12.25;;;;;;;;;;5069355;28;20075;-56
2023/03/19 12:47:03;;;;;;;16.23;12.18;;;;;;;;;;5070570;28;20093;-57
2023/03/19 12:49:51;;;;;;;16.05;11.20;;;;;;;;;;5088982;28;20051;-58
2023/03/19 12:52:36;;;;;;;15.90;11.32;;;;;;;;;;5069744;28;20040;-56
2023/03/19 12:55:12;;;;;;;14.95;10.68;;;;;;;;;;5069154;28;20130;-57
2023/03/19 12:57:43;;;;;;;13.10;10.07;;;;;;;;;;5069019;28;20073;-57
2023/03/19 13:00:16;;;;;;;15.90;10.52;;;;;;;;;;5090663;28;20055;-56
2023/03/19 13:02:42;;;;;;;;;;;;;;;;;;5087311;28;20044;-56
2023/03/19 13:05:22;;;;;;;14.05;9.65;;;;;;;;;;5072911;28;19974;-58
2023/03/19 13:08:07;;;;;;;13.25;9.70;;;;;;;;;;5072014;28;20426;-58
2023/03/19 13:10:35;;;;;;;15.82;10.32;;;;;;;;;;5072860;28;20094;-57
2023/03/19 13:13:03;;;;;;;15.45;10.90;;;;;;;;;;5072950;28;20036;-58
2023/03/19 13:15:35;;;;;;;14.45;10.77;;;;;;;;;;5074305;28;20036;-57
2023/03/19 13:18:11;;;;;;;14.50;11.07;;;;;;;;;;5092342;28;20097;-58
2023/03/19 13:20:56;;;;;;;13.68;10.55;;;;;;;;;;5073284;28;20048;-57
2023/03/19 13:23:26;;;;;;;14.88;10.63;;;;;;;;;;5072452;28;20060;-57
2023/03/19 13:25:55;;;;;;;16.30;11.63;;;;;;;;;;5084233;28;20032;-57
2023/03/19 13:28:28;;;;;;;15.35;10.85;;;;;;;;;;5072969;28;20500;-56
2023/03/19 13:31:05;;;;;;;14.27;11.13;;;;;;;;;;5072769;28;20660;-58
2023/03/19 13:33:33;;;;;;;15.43;11.23;;;;;;;;;;5072567;28;20078;-57
2023/03/19 13:36:04;;;;;;;16.35;11.48;;;;;;;;;;5089284;28;20055;-58
2023/03/19 13:38:50;;;;;;;17.52;11.75;;;;;;;;;;5088891;28;20044;-58
2023/03/19 13:41:34;;;;;;;16.05;11.10;;;;;;;;;;5072261;28;20051;-57
2023/03/19 13:44:19;;;;;;;17.08;10.90;;;;;;;;;;5072171;28;20066;-57
2023/03/19 13:46:45;;;;;;;14.65;10.82;;;;;;;;;;5078259;28;20541;-58
2023/03/19 13:49:30;;;;;;;14.35;11.15;;;;;;;;;;5092023;28;20104;-58
2023/03/19 13:52:02;;;;;;;15.13;10.57;;;;;;;;;;5077300;28;20047;-58
2023/03/19 13:54:38;;;;;;;15.85;11.00;;;;;;;;;;5072925;28;20040;-58
2023/03/19 13:57:13;;;;;;;13.93;10.77;;;;;;;;;;5071865;28;20043;-58
2023/03/19 13:59:42;;;;;;;16.67;10.88;;;;;;;;;;5072330;28;20119;-58
2023/03/19 14:02:20;;;;;;;13.63;10.50;;;;;;;;;;5072394;28;20522;-58
2023/03/19 14:05:03;;;;;;;13.52;10.70;;;;;;;;;;5071880;28;20040;-58
2023/03/19 14:07:35;;;;;;;12.70;9.38;;;;;;;;;;5071993;28;20093;-58
2023/03/19 14:10:03;;;;;;;15.75;9.38;;;;;;;;;;5071179;28;20127;-58
2023/03/19 14:12:33;;;;;;;13.38;9.68;;;;;;;;;;5070985;28;20044;-57
2023/03/19 14:15:03;;;;;;;13.18;9.73;;;;;;;;;;5072143;28;20040;-58
2023/03/19 14:17:40;;;;;;;14.07;10.05;;;;;;;;;;5070177;28;20535;-58
2023/03/19 14:20:12;;;;;;;14.57;10.15;;;;;;;;;;5071997;28;20478;-58
2023/03/19 14:22:38;;;;;;;16.08;11.40;;;;;;;;;;5071552;28;20506;-58
2023/03/19 14:25:16;;;;;;;20.38;12.38;;;;;;;;;;5083627;28;20047;-58
2023/03/19 14:27:49;;;;;;;18.50;13.43;;;;;;;;;;5071396;28;20046;-58
2023/03/19 14:30:24;;;;;;;20.63;13.60;;;;;;;;;;5071586;28;20036;-58
2023/03/19 14:32:51;;;;;;;22.40;14.80;;;;;;;;;;5071205;28;20055;-58
2023/03/19 14:35:19;;;;;;;22.40;14.50;;;;;;;;;;5071713;28;20036;-58